createdAt,value
2018-12-15T00:01:52.440Z,75.67
2018-12-15T00:04:21.039Z,73.13
2018-12-15T00:06:49.695Z,73.13
2018-12-15T00:09:18.224Z,71.70
2018-12-15T00:11:46.748Z,66.93
2018-12-15T00:14:15.416Z,71.17
2018-12-15T00:16:44.059Z,63.63
2018-12-15T00:19:12.670Z,63.33
2018-12-15T00:21:41.394Z,60.20
2018-12-15T00:24:10.328Z,65.43
2018-12-15T00:26:39.236Z,60.60
2018-12-15T00:29:07.952Z,62.70
2018-12-15T00:31:36.584Z,57.70
2018-12-15T00:34:05.451Z,63.13
2018-12-15T00:36:34.061Z,59.63
2018-12-15T00:39:02.570Z,66.37
2018-12-15T00:41:31.444Z,62.17
2018-12-15T00:44:00.202Z,65.20
2018-12-15T00:46:28.776Z,70.27
2018-12-15T00:48:57.592Z,67.67
2018-12-15T00:51:26.967Z,67.23
2018-12-15T00:53:55.608Z,70.50
2018-12-15T00:56:24.367Z,70.07
2018-12-15T00:58:52.990Z,74.33
2018-12-15T01:01:21.678Z,76.40
2018-12-15T01:03:50.404Z,71.83
2018-12-15T01:06:18.961Z,76.47
2018-12-15T01:08:47.722Z,78.70
2018-12-15T01:11:16.331Z,78.13
2018-12-15T01:13:44.968Z,78.33
2018-12-15T01:16:13.801Z,78.33
2018-12-15T01:18:42.446Z,92.07
2018-12-15T01:21:11.087Z,85.50
2018-12-15T01:23:39.788Z,86.37
2018-12-15T01:26:08.462Z,85.73
2018-12-15T01:28:37.189Z,75.97
2018-12-15T01:31:06.162Z,91.43
2018-12-15T01:33:34.723Z,75.00
2018-12-15T01:36:03.237Z,69.47
2018-12-15T01:38:32.120Z,75.10
2018-12-15T01:41:00.643Z,71.27
2018-12-15T01:43:29.331Z,72.07
2018-12-15T01:45:58.193Z,70.97
2018-12-15T01:48:26.812Z,66.13
2018-12-15T01:50:55.520Z,70.60
2018-12-15T01:53:24.464Z,62.67
2018-12-15T01:55:53.216Z,63.50
2018-12-15T01:58:21.916Z,56.83
2018-12-15T02:00:50.588Z,57.07
2018-12-15T02:03:19.140Z,55.73
2018-12-15T02:05:47.683Z,58.13
2018-12-15T02:08:16.227Z,52.67
2018-12-15T02:10:45.011Z,49.37
2018-12-15T02:13:13.691Z,49.07
2018-12-15T02:15:42.534Z,43.80
2018-12-15T02:18:11.941Z,37.43
2018-12-15T02:20:40.594Z,37.97
2018-12-15T02:23:09.356Z,33.97
2018-12-15T02:25:38.014Z,37.37
2018-12-15T02:28:06.697Z,33.03
2018-12-15T02:30:35.291Z,35.70
2018-12-15T02:33:03.823Z,32.90
2018-12-15T02:35:32.515Z,33.80
2018-12-15T02:38:01.111Z,31.97
2018-12-15T02:40:29.691Z,31.97
2018-12-15T02:42:58.307Z,38.43
2018-12-15T02:45:28.092Z,30.60
2018-12-15T02:47:56.694Z,31.83
2018-12-15T02:50:25.231Z,32.60
2018-12-15T02:52:54.128Z,36.57
2018-12-15T02:55:22.683Z,33.77
2018-12-15T02:57:51.333Z,34.97
2018-12-15T03:00:19.914Z,30.93
2018-12-15T03:02:48.393Z,29.33
2018-12-15T03:05:17.036Z,31.10
2018-12-15T03:07:45.630Z,33.90
2018-12-15T03:10:14.209Z,33.67
2018-12-15T03:12:42.927Z,35.33
2018-12-15T03:15:11.794Z,31.27
2018-12-15T03:17:40.240Z,34.33
2018-12-15T03:20:08.700Z,28.80
2018-12-15T03:22:37.208Z,33.50
2018-12-15T03:25:06.081Z,35.93
2018-12-15T03:27:34.619Z,30.50
2018-12-15T03:30:03.478Z,27.50
2018-12-15T03:32:32.036Z,32.10
2018-12-15T03:35:01.002Z,31.83
2018-12-15T03:37:29.724Z,28.77
2018-12-15T03:39:58.265Z,32.87
2018-12-15T03:42:27.250Z,30.53
2018-12-15T03:44:56.095Z,31.03
2018-12-15T03:47:24.723Z,32.43
2018-12-15T03:49:53.348Z,32.90
2018-12-15T03:52:21.942Z,29.00
2018-12-15T03:54:50.409Z,27.60
2018-12-15T03:57:19.021Z,30.20
2018-12-15T03:59:47.685Z,31.67
2018-12-15T04:02:16.386Z,28.67
2018-12-15T04:04:45.345Z,28.47
2018-12-15T04:07:13.995Z,29.73
2018-12-15T04:09:42.544Z,27.93
2018-12-15T04:12:11.281Z,31.97
2018-12-15T04:14:39.866Z,29.60
2018-12-15T04:17:08.377Z,31.07
2018-12-15T04:19:36.830Z,27.23
2018-12-15T04:22:21.058Z,32.30
2018-12-15T04:24:49.868Z,26.73
2018-12-15T04:27:18.588Z,29.73
2018-12-15T04:29:47.294Z,30.83
2018-12-15T04:32:15.742Z,30.30
2018-12-15T04:34:44.246Z,32.60
2018-12-15T04:37:12.874Z,32.80
2018-12-15T04:39:41.313Z,32.67
2018-12-15T04:42:09.821Z,35.23
2018-12-15T04:44:38.389Z,34.13
2018-12-15T04:47:07.398Z,33.17
2018-12-15T04:49:35.991Z,33.47
2018-12-15T04:52:05.145Z,30.10
2018-12-15T04:54:34.085Z,31.83
2018-12-15T04:57:02.659Z,30.53
2018-12-15T04:59:31.466Z,32.40
2018-12-15T05:02:00.011Z,26.87
2018-12-15T05:04:28.653Z,30.83
2018-12-15T05:06:57.565Z,30.43
2018-12-15T05:09:26.269Z,31.13
2018-12-15T05:11:54.884Z,32.03
2018-12-15T05:14:23.526Z,29.17
2018-12-15T05:16:52.128Z,31.73
2018-12-15T05:19:20.682Z,28.73
2018-12-15T05:21:49.847Z,26.90
2018-12-15T05:24:18.485Z,29.67
2018-12-15T05:26:47.116Z,30.03
2018-12-15T05:29:15.765Z,31.17
2018-12-15T05:31:44.501Z,29.60
2018-12-15T05:34:13.054Z,27.17
2018-12-15T05:36:42.514Z,35.07
2018-12-15T05:39:11.558Z,31.27
2018-12-15T05:41:40.298Z,29.87
2018-12-15T05:44:08.852Z,29.23
2018-12-15T05:46:38.845Z,27.33
2018-12-15T05:49:07.719Z,28.13
2018-12-15T05:51:36.198Z,29.57
2018-12-15T05:54:04.932Z,30.57
2018-12-15T05:56:33.419Z,30.47
2018-12-15T05:59:02.133Z,32.77
2018-12-15T06:01:31.913Z,33.43
2018-12-15T06:04:00.729Z,31.83
2018-12-15T06:06:29.365Z,34.33
2018-12-15T06:08:58.181Z,30.83
2018-12-15T06:11:26.838Z,29.90
2018-12-15T06:13:55.439Z,30.63
2018-12-15T06:16:24.264Z,28.30
2018-12-15T06:18:52.777Z,29.40
2018-12-15T06:21:21.257Z,38.40
2018-12-15T06:23:50.237Z,36.27
2018-12-15T06:26:18.788Z,35.97
2018-12-15T06:28:47.448Z,34.77
2018-12-15T06:31:16.203Z,33.03
2018-12-15T06:33:45.516Z,32.37
2018-12-15T06:36:14.203Z,29.03
2018-12-15T06:38:43.319Z,27.93
2018-12-15T06:41:11.769Z,32.40
2018-12-15T06:43:40.357Z,31.80
2018-12-15T06:46:09.361Z,31.13
2018-12-15T06:48:38.340Z,30.90
2018-12-15T06:51:07.308Z,33.93
2018-12-15T06:53:36.160Z,32.30
2018-12-15T06:56:04.792Z,30.80
2018-12-15T06:58:33.415Z,35.50
2018-12-15T07:01:02.113Z,34.87
2018-12-15T07:03:30.778Z,34.60
2018-12-15T07:05:59.326Z,39.67
2018-12-15T07:08:29.470Z,33.67
2018-12-15T07:10:58.174Z,38.83
2018-12-15T07:13:27.113Z,34.27
2018-12-15T07:15:55.826Z,25.00
2018-12-15T07:18:24.362Z,21.47
2018-12-15T07:20:52.976Z,27.13
2018-12-15T07:23:22.048Z,24.73
2018-12-15T07:25:50.985Z,29.07
2018-12-15T07:28:19.636Z,34.33
2018-12-15T07:30:48.538Z,31.53
2018-12-15T07:33:17.029Z,33.50
2018-12-15T07:35:45.737Z,30.97
2018-12-15T07:38:14.502Z,33.47
2018-12-15T07:40:42.930Z,35.83
2018-12-15T07:43:11.870Z,39.27
2018-12-15T07:45:42.901Z,36.23
2018-12-15T07:48:11.412Z,42.70
2018-12-15T07:50:40.023Z,32.47
2018-12-15T07:53:08.845Z,37.57
2018-12-15T07:55:43.953Z,36.87
2018-12-15T07:58:12.604Z,46.13
2018-12-15T08:00:47.535Z,42.37
2018-12-15T08:03:16.385Z,47.87
2018-12-15T08:05:44.891Z,43.67
2018-12-15T08:08:13.697Z,40.60
2018-12-15T08:11:51.546Z,35.73
2018-12-15T08:14:20.276Z,23.33
2018-12-15T08:16:49.976Z,19.50
2018-12-15T08:19:18.861Z,22.70
2018-12-15T08:21:47.551Z,21.10
2018-12-15T08:24:16.404Z,28.50
2018-12-15T08:26:44.835Z,37.00
2018-12-15T08:29:13.457Z,60.77
2018-12-15T08:31:42.019Z,45.13
2018-12-15T08:34:10.598Z,36.20
2018-12-15T08:36:39.238Z,40.10
2018-12-15T08:39:08.374Z,35.77
2018-12-15T08:41:37.012Z,33.80
2018-12-15T08:44:05.790Z,28.93
2018-12-15T08:46:34.570Z,39.17
2018-12-15T08:49:04.691Z,36.70
2018-12-15T08:51:33.576Z,39.77
2018-12-15T08:54:02.509Z,36.43
2018-12-15T08:56:31.022Z,27.93
2018-12-15T08:59:00.393Z,25.17
2018-12-15T09:01:29.000Z,27.50
2018-12-15T09:03:57.654Z,29.63
2018-12-15T09:06:26.481Z,28.93
2018-12-15T09:08:55.299Z,35.73
2018-12-15T09:11:23.844Z,23.43
2018-12-15T09:13:52.481Z,24.47
2018-12-15T09:16:26.373Z,28.70
2018-12-15T09:18:52.138Z,28.43
2018-12-15T09:21:20.955Z,28.47
2018-12-15T09:23:49.701Z,38.80
2018-12-15T09:26:18.265Z,32.90
2018-12-15T09:28:46.764Z,32.87
2018-12-15T09:31:15.308Z,37.80
2018-12-15T09:33:43.959Z,26.67
2018-12-15T09:36:12.768Z,33.13
2018-12-15T09:38:41.623Z,35.30
2018-12-15T09:41:10.152Z,35.03
2018-12-15T09:43:38.974Z,34.30
2018-12-15T09:46:07.591Z,38.13
2018-12-15T09:48:36.296Z,47.30
2018-12-15T09:51:05.053Z,36.67
2018-12-15T09:53:33.706Z,30.40
2018-12-15T09:56:02.540Z,40.43
2018-12-15T09:58:31.281Z,42.80
2018-12-15T10:00:59.853Z,45.17
2018-12-15T10:03:28.642Z,31.87
2018-12-15T10:05:57.920Z,34.87
2018-12-15T10:08:26.489Z,38.43
2018-12-15T10:10:55.337Z,31.30
2018-12-15T10:13:23.940Z,34.23
2018-12-15T10:15:52.877Z,30.93
2018-12-15T10:18:22.841Z,34.43
2018-12-15T10:20:52.569Z,29.13
2018-12-15T10:23:24.040Z,26.00
2018-12-15T10:25:53.045Z,27.03
2018-12-15T10:28:21.598Z,24.53
2018-12-15T10:30:55.708Z,28.67
2018-12-15T10:33:24.187Z,30.97
2018-12-15T10:35:53.368Z,35.10
2018-12-15T10:38:22.354Z,28.93
2018-12-15T10:40:51.489Z,36.90
2018-12-15T10:43:20.091Z,39.87
2018-12-15T10:45:49.092Z,43.80
2018-12-15T10:48:17.808Z,31.40
2018-12-15T10:50:46.525Z,32.60
2018-12-15T10:53:15.056Z,27.03
2018-12-15T10:55:44.186Z,33.27
2018-12-15T10:58:13.720Z,32.40
2018-12-15T11:00:48.742Z,31.00
2018-12-15T11:03:17.258Z,28.97
2018-12-15T11:05:45.914Z,35.20
2018-12-15T11:08:15.026Z,29.80
2018-12-15T11:10:43.707Z,29.63
2018-12-15T11:13:12.460Z,35.80
2018-12-15T11:15:41.473Z,33.93
2018-12-15T11:18:10.002Z,36.77
2018-12-15T11:20:38.999Z,39.13
2018-12-15T11:23:07.902Z,55.00
2018-12-15T11:25:36.402Z,38.23
2018-12-15T11:28:05.143Z,32.67
2018-12-15T11:30:34.165Z,29.40
2018-12-15T11:33:03.242Z,35.27
2018-12-15T11:35:32.070Z,29.57
2018-12-15T11:38:00.708Z,29.43
2018-12-15T11:40:29.463Z,30.67
2018-12-15T11:42:58.074Z,31.30
2018-12-15T11:45:27.179Z,29.03
2018-12-15T11:47:55.865Z,27.50
2018-12-15T11:50:24.442Z,29.33
2018-12-15T11:52:53.531Z,27.83
2018-12-15T11:55:23.815Z,35.63
2018-12-15T11:57:52.539Z,25.63
2018-12-15T12:00:21.097Z,26.60
2018-12-15T12:02:50.057Z,32.60
2018-12-15T12:05:18.904Z,46.00
2018-12-15T12:07:47.483Z,33.60
2018-12-15T12:10:16.123Z,44.53
2018-12-15T12:12:44.846Z,52.93
2018-12-15T12:15:13.629Z,33.37
2018-12-15T12:17:42.601Z,34.97
2018-12-15T12:20:11.476Z,29.37
2018-12-15T12:22:40.225Z,39.23
2018-12-15T12:25:09.018Z,45.53
2018-12-15T12:27:38.916Z,60.37
2018-12-15T12:30:08.562Z,43.10
2018-12-15T12:33:25.876Z,48.33
2018-12-15T12:46:11.165Z,38.60
2018-12-15T13:27:05.222Z,30.93
2018-12-15T13:29:52.115Z,33.10
2018-12-15T13:32:32.442Z,37.47
2018-12-15T13:35:15.150Z,37.10
2018-12-15T13:38:07.751Z,32.03
2018-12-15T13:40:45.022Z,43.90
2018-12-15T14:00:49.815Z,28.90
2018-12-15T14:06:47.881Z,32.20
2018-12-15T14:09:23.107Z,30.70
2018-12-15T14:12:07.971Z,31.03
2018-12-15T14:14:43.745Z,29.50
2018-12-15T14:20:17.169Z,36.30
2018-12-15T14:23:11.897Z,39.03
2018-12-15T14:26:00.939Z,32.23
2018-12-15T14:28:42.808Z,33.63
2018-12-15T14:34:26.628Z,37.30
2018-12-15T14:37:15.826Z,35.23
2018-12-15T14:40:09.054Z,38.27
2018-12-15T14:43:07.358Z,33.63
2018-12-15T14:55:44.198Z,52.53
2018-12-15T14:58:23.314Z,44.03
2018-12-15T15:04:32.321Z,46.10
2018-12-15T15:41:39.322Z,42.90
2018-12-15T15:44:28.458Z,42.83
2018-12-15T15:47:25.461Z,41.50
2018-12-15T15:50:19.069Z,40.50
2018-12-15T15:53:12.693Z,36.50
2018-12-15T15:56:01.772Z,40.07
2018-12-15T15:58:51.991Z,53.07
2018-12-15T16:01:56.091Z,90.27
2018-12-15T16:04:38.394Z,41.70
2018-12-15T16:07:26.058Z,46.43
2018-12-15T16:10:10.803Z,44.07
2018-12-15T16:12:57.335Z,31.07
2018-12-15T16:15:49.791Z,43.13
2018-12-15T16:21:52.453Z,38.27
2018-12-15T16:35:07.926Z,42.00
2018-12-15T16:47:27.824Z,46.57
2018-12-15T16:50:13.730Z,45.17
2018-12-15T16:53:36.183Z,43.03
2018-12-15T16:59:58.045Z,41.73
2018-12-15T17:06:03.322Z,41.27
2018-12-15T17:12:30.282Z,34.43
2018-12-15T17:15:32.153Z,37.63
2018-12-15T17:18:25.023Z,34.93
2018-12-15T17:24:47.054Z,35.40
2018-12-15T17:27:33.150Z,37.13
2018-12-15T17:30:25.239Z,35.20
2018-12-15T17:33:20.572Z,31.90
2018-12-15T17:36:19.102Z,38.10
2018-12-15T17:39:13.045Z,44.53
2018-12-15T17:42:21.442Z,35.93
2018-12-15T17:45:07.434Z,37.47
2018-12-15T17:47:48.677Z,36.63
2018-12-15T17:50:47.060Z,56.77
2018-12-15T18:13:53.660Z,36.57
2018-12-15T18:19:58.067Z,39.27
2018-12-15T18:26:48.838Z,48.80
2018-12-15T18:29:53.352Z,50.77
2018-12-15T18:32:49.450Z,50.17
2018-12-15T18:38:48.006Z,54.93
2018-12-15T18:44:33.732Z,80.27
2018-12-15T18:53:28.967Z,193.73
2018-12-15T18:56:36.232Z,125.60
2018-12-15T19:30:37.160Z,61.57
2018-12-15T19:33:29.800Z,68.57
2018-12-15T19:36:20.516Z,72.07
2018-12-15T19:39:13.910Z,71.63
2018-12-15T19:41:54.386Z,59.23
2018-12-15T19:45:00.266Z,58.93
2018-12-15T19:47:53.734Z,65.77
2018-12-15T19:50:51.623Z,66.23
2018-12-15T19:53:41.043Z,69.03
2018-12-15T19:56:25.800Z,63.70
2018-12-15T20:05:46.013Z,73.13
2018-12-15T20:09:17.696Z,78.30
2018-12-15T20:12:26.606Z,75.20
2018-12-15T20:15:47.819Z,86.40
2018-12-15T20:18:48.691Z,74.53
2018-12-15T20:27:34.662Z,78.20
2018-12-15T20:47:50.654Z,80.50
2018-12-15T20:56:47.073Z,76.43
2018-12-15T21:05:55.814Z,70.77
2018-12-15T21:08:45.852Z,72.43
2018-12-15T21:11:41.040Z,78.23
2018-12-15T21:14:37.677Z,72.20
2018-12-15T21:17:29.180Z,62.93
2018-12-15T21:20:22.785Z,69.67
2018-12-15T21:23:08.773Z,64.83
2018-12-15T21:25:56.128Z,66.17
2018-12-15T21:28:46.146Z,60.57
2018-12-15T21:34:48.750Z,68.30
2018-12-15T22:10:10.501Z,50.03
2018-12-15T22:22:03.071Z,71.87
2018-12-15T22:28:14.845Z,59.90
2018-12-15T22:38:32.460Z,61.77
2018-12-15T22:41:24.178Z,59.77
2018-12-15T22:47:11.824Z,56.77
2018-12-15T22:50:01.844Z,61.60
2018-12-15T22:53:07.307Z,50.97
2018-12-15T22:56:10.274Z,51.33
2018-12-15T22:59:12.638Z,57.67
2018-12-15T23:21:57.574Z,53.53
2018-12-15T23:24:52.511Z,52.73
2018-12-15T23:34:14.210Z,50.10
